Highland, Michigan
Current Conditions -  °F | °C
As of 3:09 AM on Thursday 27 Nov 2014 (Local Time) from KPTK Reporting Station
Scattered Clouds Scattered Clouds  
Wind Chill: 19°   Ceiling: Unl
Heat Index: 27°   Visibility: 10mi
Dew Point: 21°   Wind: 8mph
Humidity: 78%   Direction: 330°NNW
Pressure: 30.07"   Gusts: NA
Location:  42.63°N, 83.61°W
Report Text: KPTK 270809Z AUTO 33007KT 10SM SCT015 M03/M06 A3007 RMK AO2 T10281061
Loading
Personal Weather Stations






























Interactive Weather Map New forecast layout! Learn more

10-Day Weather Forecast

Advertisements
Track Severe Weather on mobile